Time;durP1;ratioP1;P1;durP2;ratioP2;P2;SDS_P1;SDS_P2;PMS_P1;PMS_P2;Temp;Humidity;BMP_temperature;BMP_pressure;BME280_temperature;BME280_humidity;BME280_pressure;Samples;Min_cycle;Max_cycle;Signal;HPM_P1;HPM_P2
2022/08/18 00:01:40;;;;;;;5.13;4.67;;;18.60;99.90;;;;;;5033839;28;20491;-93
2022/08/18 00:04:08;;;;;;;4.90;4.50;;;18.60;99.90;;;;;;5037218;28;20527;-93
2022/08/18 00:06:34;;;;;;;4.40;4.10;;;18.60;99.90;;;;;;5037474;28;20457;-92
2022/08/18 00:09:05;;;;;;;4.50;4.10;;;18.60;99.90;;;;;;5037009;28;20500;-93
2022/08/18 00:11:34;;;;;;;4.20;3.80;;;18.60;99.90;;;;;;5037337;28;20467;-93
2022/08/18 00:14:03;;;;;;;4.63;3.73;;;18.60;99.90;;;;;;5037247;28;20496;-94
2022/08/18 00:16:30;;;;;;;4.57;4.17;;;18.70;99.90;;;;;;5037185;28;20469;-94
2022/08/18 00:18:57;;;;;;;4.87;4.40;;;18.70;99.90;;;;;;5037596;28;20484;-93
2022/08/18 00:21:24;;;;;;;3.80;3.50;;;18.70;99.90;;;;;;5037647;28;20504;-93
2022/08/18 00:23:50;;;;;;;5.87;3.50;;;18.70;99.90;;;;;;5038972;28;20464;-93
2022/08/18 00:26:17;;;;;;;4.00;3.60;;;18.70;99.90;;;;;;5038539;28;20464;-94
2022/08/18 00:28:44;;;;;;;4.33;3.93;;;18.70;99.90;;;;;;5036816;28;20533;-93
2022/08/18 00:31:12;;;;;;;3.90;3.50;;;18.70;99.90;;;;;;5037076;28;20973;-92
2022/08/18 00:33:39;;;;;;;4.50;4.10;;;18.60;99.90;;;;;;5036855;28;20969;-93
2022/08/18 00:36:09;;;;;;;3.67;3.37;;;18.60;99.90;;;;;;5037042;28;20841;-93
2022/08/18 00:38:35;;;;;;;5.83;4.40;;;18.60;99.90;;;;;;5036671;28;20460;-93
2022/08/18 00:41:02;;;;;;;4.07;3.43;;;18.60;99.90;;;;;;5037159;28;20842;-93
2022/08/18 00:43:36;;;;;;;4.10;3.70;;;18.60;99.90;;;;;;5036407;28;20465;-92
2022/08/18 00:46:08;;;;;;;5.10;3.80;;;18.60;99.90;;;;;;5037040;28;20460;-94
2022/08/18 00:48:37;;;;;;;3.70;3.40;;;18.70;99.90;;;;;;5036755;28;20480;-93
2022/08/18 00:51:09;;;;;;;3.60;3.30;;;18.70;99.90;;;;;;5038229;28;20818;-95
2022/08/18 00:53:39;;;;;;;4.20;3.80;;;18.70;99.90;;;;;;5036613;28;20461;-93
2022/08/18 00:56:10;;;;;;;4.50;3.90;;;18.70;99.90;;;;;;5036914;28;20567;-93
2022/08/18 00:58:42;;;;;;;4.13;3.73;;;18.70;99.90;;;;;;5036979;28;20457;-93
2022/08/18 01:01:11;;;;;;;4.40;4.00;;;18.70;99.90;;;;;;5036818;28;20464;-93
2022/08/18 01:03:42;;;;;;;4.33;3.90;;;18.70;99.90;;;;;;5036257;28;21018;-93
2022/08/18 01:06:15;;;;;;;4.43;3.53;;;18.70;99.90;;;;;;5036331;28;20472;-93
2022/08/18 01:08:42;;;;;;;5.77;4.60;;;18.70;99.90;;;;;;5036222;28;20477;-93
2022/08/18 01:11:10;;;;;;;4.40;4.00;;;18.70;99.90;;;;;;5036197;28;20461;-93
2022/08/18 01:13:40;;;;;;;4.60;4.20;;;18.70;99.90;;;;;;5035892;28;20461;-94
2022/08/18 01:21:52;;;;;;;3.90;3.60;;;18.60;99.90;;;;;;5037032;28;20459;-93
2022/08/18 01:25:58;;;;;;;3.70;3.40;;;18.60;99.90;;;;;;5036240;28;20460;-93
2022/08/18 01:27:17;;;;;;;3.83;3.43;;;18.60;99.90;;;;;;5035871;28;20520;-93
2022/08/18 01:29:44;;;;;;;4.30;3.97;;;18.60;99.90;;;;;;5035339;28;21010;-93
2022/08/18 01:32:15;;;;;;;4.27;3.87;;;18.60;99.90;;;;;;5035783;28;20546;-93
2022/08/18 01:34:43;;;;;;;4.03;3.70;;;18.60;99.90;;;;;;5036072;28;20471;-93
2022/08/18 01:37:10;;;;;;;4.50;3.43;;;18.60;99.90;;;;;;5038043;28;20463;-94
2022/08/18 01:39:39;;;;;;;4.57;3.40;;;18.60;99.90;;;;;;5038846;28;20592;-94
2022/08/18 01:42:06;;;;;;;4.90;4.43;;;18.60;99.90;;;;;;5039379;28;20496;-94
2022/08/18 01:44:33;;;;;;;4.57;4.03;;;18.60;99.90;;;;;;5038982;28;20465;-94
2022/08/18 01:47:05;;;;;;;4.30;3.90;;;18.50;99.90;;;;;;5039889;28;20461;-94
2022/08/18 01:49:35;;;;;;;4.60;4.20;;;18.50;99.90;;;;;;5039809;28;20492;-94
2022/08/18 01:52:03;;;;;;;4.60;4.17;;;18.50;99.90;;;;;;5042359;28;20504;-95
2022/08/18 01:54:30;;;;;;;4.50;3.73;;;18.50;99.90;;;;;;5040009;28;20473;-95
2022/08/18 01:56:59;;;;;;;3.90;3.60;;;18.50;99.90;;;;;;5040876;28;20457;-95
2022/08/18 01:59:26;;;;;;;4.33;3.93;;;18.50;99.90;;;;;;5040617;28;20477;-95
2022/08/18 02:01:54;;;;;;;4.07;3.67;;;18.50;99.90;;;;;;5040462;28;20937;-94
2022/08/18 02:04:26;;;;;;;3.43;3.13;;;18.50;99.90;;;;;;5039834;28;20453;-95
2022/08/18 02:06:52;;;;;;;4.63;4.23;;;18.50;99.90;;;;;;5039953;28;20534;-94
2022/08/18 02:09:19;;;;;;;4.30;3.90;;;18.40;99.90;;;;;;5039458;28;20481;-94
2022/08/18 02:11:46;;;;;;;4.57;3.67;;;18.40;99.90;;;;;;5040090;28;20467;-94
2022/08/18 02:14:20;;;;;;;4.50;3.80;;;18.40;99.90;;;;;;5039134;28;20464;-93
2022/08/18 02:16:47;;;;;;;4.30;3.90;;;18.40;99.90;;;;;;5043173;28;20469;-93
2022/08/18 02:19:14;;;;;;;4.77;3.90;;;18.40;99.90;;;;;;5049474;28;20477;-93
2022/08/18 02:21:48;;;;;;;3.80;3.50;;;18.40;99.90;;;;;;5049215;28;20441;-94
2022/08/18 02:24:15;;;;;;;4.57;4.17;;;18.40;99.90;;;;;;5048519;28;20904;-93
2022/08/18 02:26:42;;;;;;;4.57;4.03;;;18.40;99.90;;;;;;5038161;28;20484;-94
2022/08/18 02:29:08;;;;;;;3.77;3.47;;;18.40;99.90;;;;;;5038308;28;20516;-93
2022/08/18 02:31:37;;;;;;;4.67;4.20;;;18.30;99.90;;;;;;5038510;28;20461;-94
2022/08/18 02:34:04;;;;;;;5.27;3.77;;;18.30;99.90;;;;;;5038870;28;20493;-94
2022/08/18 02:36:30;;;;;;;3.67;3.37;;;18.30;99.90;;;;;;5038050;28;20480;-94
2022/08/18 02:38:57;;;;;;;4.77;3.97;;;18.30;99.90;;;;;;5038422;28;20473;-93
2022/08/18 02:44:07;;;;;;;5.03;4.30;;;18.30;99.90;;;;;;5036474;28;20457;-94
2022/08/18 02:46:36;;;;;;;4.70;3.43;;;18.30;99.90;;;;;;5037828;28;20461;-94
2022/08/18 02:49:03;;;;;;;4.60;4.20;;;18.30;99.90;;;;;;5037475;28;20485;-94
2022/08/18 02:51:30;;;;;;;6.70;4.10;;;18.30;99.90;;;;;;5037218;28;20461;-93
2022/08/18 02:53:59;;;;;;;4.17;3.87;;;18.40;99.90;;;;;;5037547;28;20459;-94
2022/08/18 02:56:28;;;;;;;5.23;4.03;;;18.40;99.90;;;;;;5037688;28;20510;-93
2022/08/18 02:58:57;;;;;;;4.23;3.93;;;18.30;99.90;;;;;;5038600;28;20457;-92
2022/08/18 03:01:28;;;;;;;4.30;3.90;;;18.40;99.90;;;;;;5039819;28;20830;-94
2022/08/18 03:04:15;;;;;;;4.30;3.90;;;18.40;99.90;;;;;;5039243;28;20460;-94
2022/08/18 03:06:43;;;;;;;4.73;4.27;;;18.40;99.90;;;;;;5038863;28;20464;-94
2022/08/18 03:09:11;;;;;;;3.70;3.40;;;18.30;99.90;;;;;;5038557;28;20485;-95
2022/08/18 03:11:38;;;;;;;3.93;3.53;;;18.40;99.90;;;;;;5039968;28;20469;-95
2022/08/18 03:14:27;;;;;;;4.00;3.60;;;18.40;99.90;;;;;;5044843;28;20472;-94
2022/08/18 03:16:53;;;;;;;4.13;3.77;;;18.40;99.90;;;;;;5051398;28;20461;-92
2022/08/18 03:22:16;;;;;;;4.90;4.20;;;18.30;99.90;;;;;;4986600;28;20458;-91
2022/08/18 03:24:43;;;;;;;4.60;4.20;;;18.30;99.90;;;;;;5013807;28;20464;-91
2022/08/18 03:27:10;;;;;;;4.27;3.87;;;18.30;99.90;;;;;;5014382;28;20520;-94
2022/08/18 03:32:56;;;;;;;3.93;3.53;;;18.30;99.90;;;;;;5004694;28;20840;-94
2022/08/18 03:35:24;;;;;;;4.90;3.97;;;18.20;99.90;;;;;;5013924;28;20461;-93
2022/08/18 03:37:51;;;;;;;4.50;3.97;;;18.20;99.90;;;;;;5014123;28;20464;-94
2022/08/18 03:40:18;;;;;;;4.83;4.43;;;18.30;99.90;;;;;;5013989;28;20528;-94
2022/08/18 03:42:45;;;;;;;4.30;3.90;;;18.20;99.90;;;;;;5017938;28;20841;-94
2022/08/18 03:45:12;;;;;;;6.23;3.67;;;18.30;99.90;;;;;;5015020;28;20497;-93
2022/08/18 03:47:39;;;;;;;4.10;3.70;;;18.20;99.90;;;;;;5017745;28;20468;-94
2022/08/18 03:50:08;;;;;;;4.63;4.23;;;18.20;99.90;;;;;;5015262;28;20493;-94
2022/08/18 03:52:37;;;;;;;5.53;4.30;;;18.30;99.90;;;;;;5016394;28;20469;-94
2022/08/18 03:55:04;;;;;;;4.23;3.83;;;18.20;99.90;;;;;;5016186;28;20524;-93
2022/08/18 03:57:32;;;;;;;4.50;3.93;;;18.20;99.90;;;;;;5016220;28;20867;-94
2022/08/18 04:00:00;;;;;;;4.50;3.97;;;18.20;99.90;;;;;;5015068;28;20485;-93
2022/08/18 04:02:27;;;;;;;4.40;4.00;;;18.20;99.90;;;;;;5013898;28;20474;-94
2022/08/18 04:04:54;;;;;;;5.10;4.60;;;18.20;99.90;;;;;;5015872;28;20465;-93
2022/08/18 04:07:21;;;;;;;4.00;3.60;;;18.20;99.90;;;;;;5020168;28;20463;-94
2022/08/18 04:09:49;;;;;;;4.30;3.90;;;18.20;99.90;;;;;;5021054;28;20497;-95
2022/08/18 04:12:16;;;;;;;4.90;4.47;;;18.20;99.90;;;;;;5021501;28;20844;-95
2022/08/18 04:14:46;;;;;;;3.77;3.47;;;18.10;99.90;;;;;;5021637;28;20476;-95
2022/08/18 04:17:13;;;;;;;4.70;4.30;;;18.20;99.90;;;;;;5021105;28;20471;-95
2022/08/18 04:19:41;;;;;;;4.50;4.10;;;18.20;99.90;;;;;;5022157;28;20497;-95
2022/08/18 04:22:08;;;;;;;3.97;3.67;;;18.20;99.90;;;;;;5024545;28;20462;-96
2022/08/18 04:24:34;;;;;;;4.40;4.00;;;18.10;99.90;;;;;;5025747;28;20817;-94
2022/08/18 04:27:04;;;;;;;4.10;3.50;;;18.10;99.90;;;;;;5025510;28;20469;-95
2022/08/18 04:29:31;;;;;;;4.20;3.90;;;18.10;99.90;;;;;;5024351;28;20511;-95
2022/08/18 04:32:27;;;;;;;3.83;3.53;;;18.10;99.90;;;;;;5023512;28;20466;-95
2022/08/18 04:34:54;;;;;;;5.30;3.73;;;18.10;99.90;;;;;;5023097;28;20469;-95
2022/08/18 04:37:21;;;;;;;5.00;4.20;;;18.10;99.90;;;;;;5023703;28;20472;-94
2022/08/18 04:39:48;;;;;;;4.27;3.87;;;18.10;99.90;;;;;;5026242;28;20466;-95
2022/08/18 04:42:17;;;;;;;4.93;4.23;;;18.10;99.90;;;;;;5034808;28;20462;-95
2022/08/18 04:44:43;;;;;;;4.43;4.03;;;18.10;99.90;;;;;;5033730;28;20477;-95
2022/08/18 04:47:12;;;;;;;4.73;4.30;;;18.10;99.90;;;;;;5030062;28;20461;-95
2022/08/18 04:49:38;;;;;;;4.63;4.23;;;18.20;99.90;;;;;;5033380;28;20486;-94
2022/08/18 04:54:51;;;;;;;4.73;4.33;;;18.20;99.90;;;;;;5035523;28;20485;-95
2022/08/18 04:57:21;;;;;;;4.83;4.33;;;18.20;99.90;;;;;;5034593;28;20461;-95
2022/08/18 04:59:51;;;;;;;4.53;4.17;;;18.20;99.90;;;;;;5035348;28;20538;-94
2022/08/18 05:02:19;;;;;;;4.83;4.40;;;18.20;99.90;;;;;;5035443;28;20469;-95
2022/08/18 05:04:47;;;;;;;4.53;4.13;;;18.20;99.90;;;;;;5037401;28;20440;-94
2022/08/18 05:07:16;;;;;;;6.27;4.00;;;18.10;99.90;;;;;;5036262;28;20687;-93
2022/08/18 05:09:43;;;;;;;4.43;4.03;;;18.20;99.90;;;;;;5037282;28;20490;-95
2022/08/18 05:12:12;;;;;;;4.53;4.00;;;18.20;99.90;;;;;;5037329;28;20462;-95
2022/08/18 05:14:43;;;;;;;4.27;3.90;;;18.20;99.90;;;;;;5035640;28;20440;-96
2022/08/18 05:17:11;;;;;;;4.93;4.50;;;18.20;99.90;;;;;;5035689;28;20457;-95
2022/08/18 05:19:38;;;;;;;4.07;3.67;;;18.20;99.90;;;;;;5027229;28;20869;-94
2022/08/18 05:22:06;;;;;;;3.83;3.53;;;18.30;99.90;;;;;;5021244;28;20465;-94
2022/08/18 05:24:34;;;;;;;4.10;3.70;;;18.30;99.90;;;;;;5023078;28;20546;-94
2022/08/18 05:29:35;;;;;;;5.07;4.57;;;18.40;99.90;;;;;;4992081;28;20501;-68
2022/08/18 05:32:06;;;;;;;5.97;4.50;;;18.50;99.90;;;;;;4993573;28;20836;-69
2022/08/18 05:34:34;;;;;;;4.27;3.80;;;18.60;99.90;;;;;;4992900;28;20540;-69
2022/08/18 05:37:10;;;;;;;4.33;3.97;;;18.60;99.90;;;;;;4993624;28;20483;-68
2022/08/18 05:39:45;;;;;;;3.97;3.67;;;18.70;99.90;;;;;;4993259;28;20459;-68
2022/08/18 05:42:16;;;;;;;6.30;5.00;;;18.80;99.90;;;;;;4994565;28;20468;-69
2022/08/18 05:44:45;;;;;;;5.53;4.30;;;18.80;99.90;;;;;;4992827;28;20489;-68
2022/08/18 05:47:17;;;;;;;4.57;4.13;;;18.90;99.90;;;;;;4993237;28;20493;-68
2022/08/18 05:49:47;;;;;;;4.30;3.90;;;18.90;99.90;;;;;;4993363;28;20486;-68
2022/08/18 05:52:18;;;;;;;4.97;4.20;;;19.00;99.90;;;;;;4993256;28;20501;-69
2022/08/18 05:57:39;;;;;;;4.63;4.23;;;19.00;99.90;;;;;;4993089;28;20998;-69
2022/08/18 06:00:09;;;;;;;4.33;3.93;;;19.10;99.90;;;;;;4992971;28;20459;-70
2022/08/18 06:02:46;;;;;;;4.87;4.47;;;19.10;99.90;;;;;;4993112;28;20581;-69
2022/08/18 06:05:19;;;;;;;4.97;4.43;;;19.10;99.90;;;;;;4992596;28;20462;-70
2022/08/18 06:07:50;;;;;;;5.07;3.83;;;19.10;99.90;;;;;;4992933;28;20519;-70
2022/08/18 06:10:17;;;;;;;5.00;4.60;;;19.10;99.90;;;;;;4993050;28;20486;-70
2022/08/18 06:12:48;;;;;;;4.57;4.17;;;19.10;99.90;;;;;;4992973;28;20463;-70
2022/08/18 06:15:18;;;;;;;6.63;4.97;;;19.20;99.90;;;;;;4992571;28;20482;-70
2022/08/18 06:18:18;;;;;;;5.80;4.33;;;19.20;99.90;;;;;;4992846;28;20486;-69
2022/08/18 06:21:08;;;;;;;4.80;4.40;;;19.20;99.90;;;;;;4993090;28;20466;-69
2022/08/18 06:23:42;;;;;;;5.07;4.67;;;19.20;99.90;;;;;;4992126;28;20562;-68
2022/08/18 06:26:16;;;;;;;4.73;4.20;;;19.30;99.90;;;;;;4992807;28;20463;-69
2022/08/18 06:28:58;;;;;;;5.23;4.50;;;19.30;99.90;;;;;;4992587;28;20525;-69
2022/08/18 06:31:32;;;;;;;4.47;4.10;;;19.30;99.90;;;;;;4992496;28;20545;-69
2022/08/18 06:34:09;;;;;;;4.50;4.10;;;19.30;99.90;;;;;;4992110;28;20466;-70
2022/08/18 06:36:45;;;;;;;4.37;3.97;;;19.40;99.90;;;;;;4992428;28;20549;-69
2022/08/18 06:39:20;;;;;;;5.10;4.60;;;19.50;99.90;;;;;;4992263;28;20469;-69
2022/08/18 06:41:52;;;;;;;4.80;4.37;;;19.50;99.90;;;;;;4992297;28;21020;-70
2022/08/18 06:44:24;;;;;;;4.27;3.80;;;19.50;99.90;;;;;;4991775;28;20470;-69
2022/08/18 06:46:55;;;;;;;4.47;4.07;;;19.60;99.90;;;;;;4992181;28;20497;-70
2022/08/18 06:49:35;;;;;;;5.13;4.73;;;19.60;99.90;;;;;;4992195;28;20498;-70
2022/08/18 06:52:25;;;;;;;5.37;4.70;;;19.70;99.90;;;;;;4992380;28;20498;-69
2022/08/18 06:54:56;;;;;;;5.30;4.30;;;19.70;99.90;;;;;;4991829;28;20840;-69
2022/08/18 06:57:26;;;;;;;6.00;4.20;;;19.80;99.90;;;;;;4991714;28;20541;-70
2022/08/18 07:00:04;;;;;;;5.00;4.60;;;19.80;99.90;;;;;;4992474;28;20465;-69
2022/08/18 07:02:45;;;;;;;5.50;4.50;;;19.80;99.90;;;;;;4991894;28;20465;-70
2022/08/18 07:05:25;;;;;;;4.70;4.27;;;19.80;99.90;;;;;;4991359;28;20466;-70
2022/08/18 07:08:15;;;;;;;4.83;4.40;;;19.90;99.90;;;;;;4991611;28;20483;-68
2022/08/18 07:10:43;;;;;;;4.77;4.00;;;19.90;99.90;;;;;;4991865;28;20486;-69
2022/08/18 07:13:21;;;;;;;4.80;4.40;;;20.00;99.90;;;;;;4991366;28;20521;-69
2022/08/18 07:15:49;;;;;;;5.00;4.50;;;20.00;99.90;;;;;;4991681;28;20462;-69
2022/08/18 07:18:23;;;;;;;4.97;4.57;;;20.00;99.90;;;;;;4991485;28;20494;-69
2022/08/18 07:20:53;;;;;;;4.33;3.93;;;20.00;99.90;;;;;;4991668;28;20461;-70
2022/08/18 07:23:27;;;;;;;4.83;4.43;;;20.10;99.90;;;;;;4990755;28;20463;-70
2022/08/18 07:26:08;;;;;;;5.57;4.20;;;20.00;99.90;;;;;;4985436;28;21263;-69
2022/08/18 07:28:38;;;;;;;5.70;4.10;;;20.00;99.90;;;;;;4984327;28;20631;-69
2022/08/18 07:31:19;;;;;;;4.37;3.97;;;20.00;99.90;;;;;;4988723;28;21031;-69
2022/08/18 07:33:55;;;;;;;4.67;4.27;;;20.00;99.90;;;;;;4987376;28;20458;-69
2022/08/18 07:36:25;;;;;;;5.33;4.50;;;19.90;99.90;;;;;;4988862;28;20569;-70
2022/08/18 07:38:58;;;;;;;4.20;3.80;;;19.90;99.90;;;;;;4989902;28;20490;-69
2022/08/18 07:41:30;;;;;;;4.37;3.97;;;19.90;99.90;;;;;;4990885;28;20487;-70
2022/08/18 07:44:05;;;;;;;4.87;4.40;;;19.90;99.90;;;;;;4989424;28;20462;-69
2022/08/18 07:46:44;;;;;;;7.10;4.10;;;19.90;99.90;;;;;;4989780;28;20858;-69
2022/08/18 07:49:16;;;;;;;4.90;4.10;;;19.90;99.90;;;;;;4988123;28;20482;-70
2022/08/18 07:51:47;;;;;;;4.80;4.30;;;19.90;99.90;;;;;;4991086;28;20521;-69
2022/08/18 07:54:24;;;;;;;4.40;4.10;;;19.90;99.90;;;;;;4990025;28;20471;-70
2022/08/18 07:57:02;;;;;;;3.87;3.57;;;19.90;99.90;;;;;;4988606;28;21009;-70
2022/08/18 07:59:35;;;;;;;4.77;4.30;;;19.90;99.90;;;;;;4989770;28;20468;-69
2022/08/18 08:02:19;;;;;;;4.90;4.40;;;19.90;99.90;;;;;;4990689;28;20466;-69
2022/08/18 08:04:54;;;;;;;5.13;4.63;;;19.90;99.90;;;;;;4990195;28;20529;-69
2022/08/18 08:07:29;;;;;;;5.20;4.63;;;19.90;99.90;;;;;;4989053;28;20839;-70
2022/08/18 08:10:08;;;;;;;4.20;3.90;;;19.90;99.90;;;;;;4989918;28;20879;-69
2022/08/18 08:12:42;;;;;;;4.60;4.20;;;19.90;99.90;;;;;;4990410;28;20466;-70
2022/08/18 08:15:20;;;;;;;4.10;3.80;;;19.90;99.90;;;;;;4990050;28;20464;-70
2022/08/18 08:17:53;;;;;;;4.03;3.63;;;20.00;99.90;;;;;;4988572;28;20487;-68
2022/08/18 08:20:27;;;;;;;5.07;4.57;;;20.00;99.90;;;;;;4989952;28;20466;-69
2022/08/18 08:23:06;;;;;;;5.00;4.50;;;20.10;99.90;;;;;;4992332;28;20489;-70
2022/08/18 08:25:44;;;;;;;4.60;4.20;;;20.20;99.90;;;;;;4991737;28;20462;-70
2022/08/18 08:28:22;;;;;;;4.97;4.50;;;20.20;99.90;;;;;;4991667;28;20504;-69
2022/08/18 08:31:01;;;;;;;4.10;3.70;;;20.30;99.90;;;;;;4994234;28;20482;-69
2022/08/18 08:33:33;;;;;;;4.70;4.30;;;20.40;99.90;;;;;;4993462;28;20470;-69
2022/08/18 08:36:05;;;;;;;4.30;3.90;;;20.40;99.90;;;;;;4992561;28;20869;-68
2022/08/18 08:38:42;;;;;;;4.37;3.97;;;20.50;99.90;;;;;;4991177;28;20485;-69
2022/08/18 08:41:13;;;;;;;4.63;4.23;;;20.60;99.90;;;;;;4994182;28;20469;-69
2022/08/18 08:43:45;;;;;;;4.97;4.47;;;20.70;99.90;;;;;;4993193;28;21169;-69
2022/08/18 08:46:17;;;;;;;4.87;4.37;;;20.90;99.90;;;;;;4992832;28;20462;-69
2022/08/18 08:48:48;;;;;;;4.10;3.70;;;21.10;99.90;;;;;;4991753;28;20497;-69
2022/08/18 08:51:33;;;;;;;4.73;4.23;;;21.30;99.90;;;;;;4993770;28;20487;-68
2022/08/18 08:54:09;;;;;;;5.00;4.50;;;21.40;99.90;;;;;;4993064;28;20470;-69
2022/08/18 08:56:42;;;;;;;5.07;4.43;;;21.40;99.90;;;;;;4991508;28;20463;-69
2022/08/18 08:59:12;;;;;;;4.57;4.17;;;21.40;99.90;;;;;;4989767;28;20850;-68
2022/08/18 09:01:47;;;;;;;6.07;4.30;;;21.40;99.90;;;;;;4993880;28;20464;-69
2022/08/18 09:04:29;;;;;;;5.10;4.70;;;21.40;99.90;;;;;;4992740;28;20842;-69
2022/08/18 09:07:07;;;;;;;4.40;4.00;;;21.50;99.90;;;;;;4990155;28;20867;-68
2022/08/18 09:09:53;;;;;;;4.73;4.33;;;21.60;99.90;;;;;;4992176;28;20459;-68
2022/08/18 09:12:40;;;;;;;5.30;4.80;;;21.70;99.90;;;;;;4993247;28;20491;-68
2022/08/18 09:15:32;;;;;;;5.40;4.47;;;22.00;99.90;;;;;;4993332;28;20506;-67
2022/08/18 09:18:32;;;;;;;4.20;3.90;;;22.20;99.90;;;;;;4990845;28;20479;-66
2022/08/18 09:21:18;;;;;;;4.70;4.30;;;22.40;99.90;;;;;;4992120;28;20491;-68
2022/08/18 09:23:48;;;;;;;5.83;4.50;;;22.60;99.90;;;;;;4992903;28;20959;-69
2022/08/18 09:26:26;;;;;;;4.83;4.33;;;22.80;99.90;;;;;;4992218;28;20458;-69
2022/08/18 09:28:58;;;;;;;5.40;4.90;;;23.00;99.90;;;;;;4990315;28;20506;-70
2022/08/18 09:31:27;;;;;;;4.90;4.47;;;23.20;99.90;;;;;;4993275;28;20483;-72
2022/08/18 09:34:23;;;;;;;5.80;5.30;;;23.30;99.90;;;;;;4992141;28;20467;-69
2022/08/18 09:37:12;;;;;;;4.33;3.93;;;23.50;99.90;;;;;;4988469;28;20487;-69
2022/08/18 09:42:35;;;;;;;4.80;4.10;;;23.90;99.90;;;;;;4993163;28;20484;-69
2022/08/18 09:45:30;;;;;;;5.20;4.73;;;23.90;99.90;;;;;;4992512;28;20944;-68
2022/08/18 09:48:04;;;;;;;6.10;4.40;;;23.80;99.90;;;;;;4989159;28;20504;-67
2022/08/18 09:50:37;;;;;;;4.30;4.00;;;23.70;99.90;;;;;;4973865;28;20462;-68
2022/08/18 09:53:31;;;;;;;5.20;4.70;;;23.70;99.90;;;;;;4973574;28;20460;-69
2022/08/18 09:55:59;;;;;;;5.60;4.17;;;23.70;99.90;;;;;;4975785;28;20557;-68
2022/08/18 09:59:03;;;;;;;5.07;4.67;;;23.60;99.90;;;;;;4989761;28;21025;-68
2022/08/18 10:01:40;;;;;;;5.03;4.53;;;23.60;99.90;;;;;;4990907;28;20465;-68
2022/08/18 10:04:26;;;;;;;5.20;4.70;;;23.50;99.90;;;;;;4992530;28;20470;-68
2022/08/18 10:06:54;;;;;;;7.13;5.13;;;23.50;99.90;;;;;;4992025;28;20485;-68
2022/08/18 10:09:29;;;;;;;4.80;4.40;;;23.50;99.90;;;;;;4990981;28;20467;-68
2022/08/18 10:12:18;;;;;;;5.30;4.80;;;23.50;99.90;;;;;;4992540;28;20488;-68
2022/08/18 10:15:07;;;;;;;4.70;4.37;;;23.60;99.90;;;;;;4992224;28;20477;-67
2022/08/18 10:17:59;;;;;;;5.20;4.70;;;23.70;99.90;;;;;;4989212;28;21258;-68
2022/08/18 10:20:40;;;;;;;6.47;4.57;;;23.80;99.90;;;;;;4989686;28;20588;-68
2022/08/18 10:23:08;;;;;;;4.77;4.37;;;24.00;99.90;;;;;;4992115;28;20465;-68
2022/08/18 10:25:39;;;;;;;5.30;4.80;;;24.10;99.90;;;;;;4991470;28;20465;-68
2022/08/18 10:28:08;;;;;;;5.00;4.50;;;24.10;99.90;;;;;;4990245;28;20501;-68
2022/08/18 10:30:59;;;;;;;5.37;4.87;;;24.10;99.90;;;;;;4992469;28;20467;-68
2022/08/18 10:33:58;;;;;;;5.33;4.83;;;24.20;99.90;;;;;;4991495;28;20469;-68
2022/08/18 10:36:39;;;;;;;4.93;4.43;;;24.40;99.90;;;;;;4990677;28;20465;-68
2022/08/18 10:39:07;;;;;;;4.83;4.30;;;24.80;99.90;;;;;;4991030;28;20468;-68
2022/08/18 10:41:37;;;;;;;4.80;4.40;;;25.00;99.90;;;;;;4991672;28;20466;-67
2022/08/18 10:44:06;;;;;;;5.13;4.63;;;25.20;99.90;;;;;;4992106;28;20469;-67
2022/08/18 10:46:35;;;;;;;4.53;4.13;;;25.40;99.90;;;;;;4987525;28;20477;-68
2022/08/18 10:49:16;;;;;;;5.00;4.60;;;25.60;99.90;;;;;;4987432;28;20554;-67
2022/08/18 10:52:08;;;;;;;5.23;4.70;;;25.50;99.90;;;;;;4991860;28;20489;-68
2022/08/18 10:54:50;;;;;;;5.03;4.57;;;25.50;99.90;;;;;;4988531;28;20488;-69
2022/08/18 10:57:24;;;;;;;5.20;4.53;;;25.50;99.90;;;;;;4990430;28;20482;-68
2022/08/18 10:59:59;;;;;;;5.80;4.80;;;25.50;99.90;;;;;;4990646;28;20470;-67
2022/08/18 11:02:48;;;;;;;5.30;4.87;;;25.50;99.90;;;;;;5005025;28;20976;-68
2022/08/18 11:05:21;;;;;;;6.33;4.70;;;25.40;99.90;;;;;;5010431;28;20493;-67
2022/08/18 11:07:50;;;;;;;6.33;5.73;;;25.40;99.90;;;;;;4988022;28;20517;-68
2022/08/18 11:10:20;;;;;;;5.93;5.43;;;25.50;99.90;;;;;;4990432;28;20463;-68
2022/08/18 11:13:07;;;;;;;5.90;5.30;;;25.40;99.90;;;;;;4991735;28;20494;-68
2022/08/18 11:15:43;;;;;;;5.33;4.83;;;25.30;99.90;;;;;;4990083;28;20467;-67
2022/08/18 11:18:27;;;;;;;7.37;5.00;;;25.10;99.90;;;;;;4989931;28;20481;-68
2022/08/18 11:21:22;;;;;;;5.40;4.93;;;25.00;99.90;;;;;;4991506;28;20656;-68
2022/08/18 11:24:03;;;;;;;4.93;4.53;;;24.90;99.90;;;;;;4990388;28;20832;-68
2022/08/18 11:26:30;;;;;;;5.67;5.17;;;24.80;99.90;;;;;;4990221;28;20535;-68
2022/08/18 11:28:57;;;;;;;5.47;5.00;;;24.80;99.90;;;;;;4990104;28;20499;-67
2022/08/18 11:31:24;;;;;;;6.00;5.40;;;24.70;99.90;;;;;;4990975;28;20490;-68
2022/08/18 11:33:51;;;;;;;6.00;5.40;;;24.60;99.90;;;;;;4991056;28;20474;-68
2022/08/18 11:36:29;;;;;;;5.43;4.97;;;24.60;99.90;;;;;;4989643;28;20462;-67
2022/08/18 11:38:57;;;;;;;6.10;5.60;;;24.60;99.90;;;;;;4987886;28;20493;-68
2022/08/18 11:41:27;;;;;;;5.43;4.93;;;24.60;99.90;;;;;;4991398;28;20860;-68
2022/08/18 11:43:58;;;;;;;5.30;4.90;;;24.60;99.90;;;;;;4990810;28;20496;-67
2022/08/18 11:46:28;;;;;;;5.87;5.37;;;24.40;99.90;;;;;;4987212;28;20467;-68
2022/08/18 11:48:55;;;;;;;6.23;5.73;;;24.40;99.90;;;;;;4990065;28;20960;-67
2022/08/18 11:51:26;;;;;;;6.20;5.63;;;24.60;99.90;;;;;;4990560;28;20497;-67
2022/08/18 11:53:56;;;;;;;6.57;5.97;;;24.90;99.90;;;;;;4990364;28;20461;-68
2022/08/18 11:56:25;;;;;;;6.80;5.80;;;25.10;99.90;;;;;;4989616;28;20462;-67
2022/08/18 11:58:55;;;;;;;6.20;5.60;;;25.30;99.90;;;;;;4994585;28;20847;-67
2022/08/18 12:01:34;;;;;;;5.33;4.93;;;25.20;99.90;;;;;;4997363;28;20455;-68
2022/08/18 12:04:10;;;;;;;5.33;4.93;;;25.10;99.90;;;;;;4996501;28;20479;-66
2022/08/18 12:06:41;;;;;;;5.30;4.80;;;25.10;99.90;;;;;;4994339;28;20850;-67
2022/08/18 12:09:16;;;;;;;7.20;5.60;;;25.10;99.90;;;;;;4995395;28;20461;-66
2022/08/18 12:11:51;;;;;;;6.80;6.10;;;25.10;99.90;;;;;;4997109;28;20492;-67
2022/08/18 12:14:21;;;;;;;7.17;5.90;;;25.10;99.90;;;;;;4996696;28;20827;-67
2022/08/18 12:16:48;;;;;;;6.87;6.17;;;24.90;99.90;;;;;;4994274;28;20856;-68
2022/08/18 12:19:16;;;;;;;7.53;5.83;;;24.90;99.90;;;;;;4995857;28;20468;-67
2022/08/18 12:21:49;;;;;;;6.17;5.60;;;24.80;99.90;;;;;;4996657;28;20464;-67
2022/08/18 12:24:20;;;;;;;6.60;6.03;;;24.90;99.90;;;;;;4995659;28;20520;-67
2022/08/18 12:26:48;;;;;;;5.90;5.40;;;25.00;99.90;;;;;;4994910;28;20556;-66
2022/08/18 12:29:16;;;;;;;6.53;5.93;;;25.10;99.90;;;;;;4993728;28;20550;-67
2022/08/18 12:31:42;;;;;;;6.47;5.87;;;25.10;99.90;;;;;;4996802;28;20489;-67
2022/08/18 12:34:09;;;;;;;6.77;6.17;;;25.30;99.90;;;;;;4996371;28;20480;-67
2022/08/18 12:36:36;;;;;;;6.37;5.73;;;25.50;99.90;;;;;;4995395;28;20461;-67
2022/08/18 12:39:05;;;;;;;6.00;5.50;;;25.50;99.90;;;;;;4995162;28;20459;-68
2022/08/18 12:41:32;;;;;;;6.00;5.50;;;25.40;99.90;;;;;;4997406;28;20525;-66
2022/08/18 12:43:59;;;;;;;5.73;5.30;;;25.30;99.90;;;;;;4996099;28;20469;-67
2022/08/18 12:46:26;;;;;;;6.43;5.83;;;25.50;99.90;;;;;;4995264;28;20462;-68
2022/08/18 12:48:53;;;;;;;5.80;5.03;;;25.70;99.90;;;;;;4995240;28;20462;-67
2022/08/18 12:51:19;;;;;;;5.60;5.10;;;25.80;99.90;;;;;;4996650;28;20466;-68
2022/08/18 12:53:46;;;;;;;6.53;5.93;;;25.90;99.90;;;;;;4996160;28;20462;-68
2022/08/18 12:56:20;;;;;;;6.60;6.00;;;26.20;99.90;;;;;;4995122;28;20470;-67
2022/08/18 12:58:48;;;;;;;6.47;5.77;;;26.30;99.90;;;;;;4995712;28;20458;-67
2022/08/18 13:01:15;;;;;;;5.60;5.10;;;26.30;99.90;;;;;;4995722;28;20462;-68
2022/08/18 13:03:43;;;;;;;5.90;5.30;;;26.30;99.90;;;;;;4996359;28;21110;-69
2022/08/18 13:06:11;;;;;;;6.27;5.37;;;26.30;99.90;;;;;;4995430;28;20550;-68
2022/08/18 13:08:38;;;;;;;5.70;5.20;;;26.30;99.90;;;;;;4992786;28;21073;-67
2022/08/18 13:11:09;;;;;;;6.10;5.17;;;26.30;99.90;;;;;;4992990;28;20470;-68
2022/08/18 13:13:38;;;;;;;5.80;5.30;;;26.20;99.90;;;;;;4992822;28;20501;-67
2022/08/18 13:16:05;;;;;;;5.97;5.37;;;26.10;99.90;;;;;;4992166;28;20553;-68
2022/08/18 13:18:32;;;;;;;5.30;4.80;;;26.00;99.90;;;;;;4990076;28;21176;-67
2022/08/18 13:20:59;;;;;;;5.67;5.17;;;26.00;99.90;;;;;;4993544;28;20462;-68
2022/08/18 13:23:27;;;;;;;5.70;4.90;;;26.00;99.90;;;;;;4992559;28;20517;-68
2022/08/18 13:25:53;;;;;;;5.40;5.00;;;26.10;99.90;;;;;;4991772;28;20470;-67
2022/08/18 13:28:20;;;;;;;5.03;4.53;;;26.20;99.90;;;;;;4991847;28;21005;-68
2022/08/18 13:30:49;;;;;;;5.30;4.80;;;26.30;99.90;;;;;;4992964;28;20471;-68
2022/08/18 13:33:17;;;;;;;4.90;4.50;;;26.50;99.90;;;;;;4993062;28;20490;-68
2022/08/18 13:35:44;;;;;;;5.67;5.17;;;26.50;99.90;;;;;;4991984;28;20474;-67
2022/08/18 13:38:12;;;;;;;5.10;4.60;;;26.60;99.90;;;;;;4990830;28;20510;-68
2022/08/18 13:40:39;;;;;;;5.80;5.30;;;26.80;99.90;;;;;;4993369;28;20466;-68